sensor_id;sensor_type;location;lat;lon;timestamp;pressure;altitude;pressure_sealevel;temperature;humidity
75418;BME280;63997;52.112;5.420;2024-01-30T00:00:44;102657.41;;;6.34;100.00
75418;BME280;63997;52.112;5.420;2024-01-30T00:03:11;102656.06;;;6.31;100.00
75418;BME280;63997;52.112;5.420;2024-01-30T00:05:38;102662.66;;;6.29;100.00
75418;BME280;63997;52.112;5.420;2024-01-30T00:08:05;102663.59;;;6.23;100.00
75418;BME280;63997;52.112;5.420;2024-01-30T00:10:32;102657.31;;;6.24;100.00
75418;BME280;63997;52.112;5.420;2024-01-30T00:12:58;102660.50;;;6.26;100.00
75418;BME280;63997;52.112;5.420;2024-01-30T00:15:25;102664.19;;;6.25;100.00
75418;BME280;63997;52.112;5.420;2024-01-30T00:17:51;102655.47;;;6.24;100.00
75418;BME280;63997;52.112;5.420;2024-01-30T00:20:20;102657.53;;;6.22;100.00
75418;BME280;63997;52.112;5.420;2024-01-30T00:22:47;102657.78;;;6.21;100.00
75418;BME280;63997;52.112;5.420;2024-01-30T00:25:13;102667.28;;;6.22;100.00
75418;BME280;63997;52.112;5.420;2024-01-30T00:27:41;102670.13;;;6.15;100.00
75418;BME280;63997;52.112;5.420;2024-01-30T00:30:08;102651.81;;;6.08;100.00
75418;BME280;63997;52.112;5.420;2024-01-30T00:32:35;102659.19;;;6.06;100.00
75418;BME280;63997;52.112;5.420;2024-01-30T00:35:01;102656.53;;;6.06;100.00
75418;BME280;63997;52.112;5.420;2024-01-30T00:37:28;102659.66;;;6.03;100.00
75418;BME280;63997;52.112;5.420;2024-01-30T00:39:55;102656.78;;;6.05;100.00
75418;BME280;63997;52.112;5.420;2024-01-30T00:42:21;102644.13;;;6.07;100.00
75418;BME280;63997;52.112;5.420;2024-01-30T00:44:50;102647.56;;;6.07;100.00
75418;BME280;63997;52.112;5.420;2024-01-30T00:47:16;102646.53;;;6.08;100.00
75418;BME280;63997;52.112;5.420;2024-01-30T00:49:43;102647.31;;;6.09;100.00
75418;BME280;63997;52.112;5.420;2024-01-30T00:52:10;102649.25;;;6.14;100.00
75418;BME280;63997;52.112;5.420;2024-01-30T00:54:36;102651.31;;;6.12;100.00
75418;BME280;63997;52.112;5.420;2024-01-30T00:57:03;102656.59;;;6.12;100.00
75418;BME280;63997;52.112;5.420;2024-01-30T00:59:30;102650.75;;;6.09;100.00
75418;BME280;63997;52.112;5.420;2024-01-30T01:01:56;102644.44;;;6.10;100.00
75418;BME280;63997;52.112;5.420;2024-01-30T01:04:23;102646.53;;;6.08;100.00
75418;BME280;63997;52.112;5.420;2024-01-30T01:06:50;102647.31;;;6.09;100.00
75418;BME280;63997;52.112;5.420;2024-01-30T01:09:16;102646.53;;;6.08;100.00
75418;BME280;63997;52.112;5.420;2024-01-30T01:11:43;102651.88;;;6.14;100.00
75418;BME280;63997;52.112;5.420;2024-01-30T01:14:10;102645.06;;;6.18;100.00
75418;BME280;63997;52.112;5.420;2024-01-30T01:16:36;102637.16;;;6.18;100.00
75418;BME280;63997;52.112;5.420;2024-01-30T01:19:03;102640.59;;;6.18;100.00
75418;BME280;63997;52.112;5.420;2024-01-30T01:21:31;102634.25;;;6.19;100.00
75418;BME280;63997;52.112;5.420;2024-01-30T01:23:57;102628.25;;;6.24;100.00
75418;BME280;63997;52.112;5.420;2024-01-30T01:26:24;102629.25;;;6.23;100.00
75418;BME280;63997;52.112;5.420;2024-01-30T01:28:50;102624.81;;;6.23;100.00
75418;BME280;63997;52.112;5.420;2024-01-30T01:31:17;102608.69;;;6.25;100.00
75418;BME280;63997;52.112;5.420;2024-01-30T01:33:44;102618.47;;;6.24;100.00
75418;BME280;63997;52.112;5.420;2024-01-30T01:36:13;102622.38;;;6.22;100.00
75418;BME280;63997;52.112;5.420;2024-01-30T01:38:40;102607.34;;;6.22;100.00
75418;BME280;63997;52.112;5.420;2024-01-30T01:41:07;102614.25;;;6.23;100.00
75418;BME280;63997;52.112;5.420;2024-01-30T01:43:33;102612.88;;;6.21;100.00
75418;BME280;63997;52.112;5.420;2024-01-30T01:46:00;102613.38;;;6.18;100.00
75418;BME280;63997;52.112;5.420;2024-01-30T01:48:28;102619.44;;;6.18;100.00
75418;BME280;63997;52.112;5.420;2024-01-30T01:50:55;102621.53;;;6.16;100.00
75418;BME280;63997;52.112;5.420;2024-01-30T01:53:22;102617.53;;;6.14;100.00
75418;BME280;63997;52.112;5.420;2024-01-30T01:55:49;102613.25;;;6.07;100.00
75418;BME280;63997;52.112;5.420;2024-01-30T01:58:16;102615.44;;;6.16;100.00
75418;BME280;63997;52.112;5.420;2024-01-30T02:00:44;102620.25;;;6.19;100.00
75418;BME280;63997;52.112;5.420;2024-01-30T02:03:11;102616.00;;;6.18;100.00
75418;BME280;63997;52.112;5.420;2024-01-30T02:05:41;102612.25;;;6.14;100.00
75418;BME280;63997;52.112;5.420;2024-01-30T02:08:08;102614.91;;;6.14;100.00
75418;BME280;63997;52.112;5.420;2024-01-30T02:10:35;102614.41;;;6.17;100.00
75418;BME280;63997;52.112;5.420;2024-01-30T02:13:01;102604.16;;;6.20;100.00
75418;BME280;63997;52.112;5.420;2024-01-30T02:15:28;102610.22;;;6.21;100.00
75418;BME280;63997;52.112;5.420;2024-01-30T02:17:55;102604.41;;;6.19;100.00
75418;BME280;63997;52.112;5.420;2024-01-30T02:20:23;102606.25;;;6.18;100.00
75418;BME280;63997;52.112;5.420;2024-01-30T02:22:52;102615.19;;;6.17;100.00
75418;BME280;63997;52.112;5.420;2024-01-30T02:25:20;102607.59;;;6.21;100.00
75418;BME280;63997;52.112;5.420;2024-01-30T02:27:47;102603.88;;;6.22;100.00
75418;BME280;63997;52.112;5.420;2024-01-30T02:30:13;102612.53;;;6.17;100.00
75418;BME280;63997;52.112;5.420;2024-01-30T02:32:40;102620.97;;;6.14;100.00
75418;BME280;63997;52.112;5.420;2024-01-30T02:35:06;102623.31;;;6.10;100.00
75418;BME280;63997;52.112;5.420;2024-01-30T02:37:33;102618.03;;;6.10;100.00
75418;BME280;63997;52.112;5.420;2024-01-30T02:40:00;102615.16;;;6.12;100.00
75418;BME280;63997;52.112;5.420;2024-01-30T02:42:26;102614.31;;;6.12;100.00
75418;BME280;63997;52.112;5.420;2024-01-30T02:44:53;102610.66;;;6.13;100.00
75418;BME280;63997;52.112;5.420;2024-01-30T02:47:19;102612.72;;;6.10;100.00
75418;BME280;63997;52.112;5.420;2024-01-30T02:49:46;102613.25;;;6.07;100.00
75418;BME280;63997;52.112;5.420;2024-01-30T02:52:13;102599.25;;;6.07;100.00
75418;BME280;63997;52.112;5.420;2024-01-30T02:54:39;102592.91;;;6.08;100.00
75418;BME280;63997;52.112;5.420;2024-01-30T02:57:06;102602.69;;;6.07;100.00
75418;BME280;63997;52.112;5.420;2024-01-30T02:59:32;102596.59;;;6.07;100.00
75418;BME280;63997;52.112;5.420;2024-01-30T03:02:02;102597.41;;;6.07;100.00
75418;BME280;63997;52.112;5.420;2024-01-30T03:04:29;102585.22;;;6.06;100.00
75418;BME280;63997;52.112;5.420;2024-01-30T03:06:56;102596.28;;;6.03;100.00
75418;BME280;63997;52.112;5.420;2024-01-30T03:09:23;102588.59;;;6.02;100.00
75418;BME280;63997;52.112;5.420;2024-01-30T03:11:49;102590.44;;;6.01;100.00
75418;BME280;63997;52.112;5.420;2024-01-30T03:14:16;102589.88;;;5.99;100.00
75418;BME280;63997;52.112;5.420;2024-01-30T03:16:43;102579.88;;;6.01;100.00
75418;BME280;63997;52.112;5.420;2024-01-30T03:19:09;102572.25;;;6.05;100.00
75418;BME280;63997;52.112;5.420;2024-01-30T03:21:36;102558.31;;;6.09;100.00
75418;BME280;63997;52.112;5.420;2024-01-30T03:24:03;102559.91;;;6.10;100.00
75418;BME280;63997;52.112;5.420;2024-01-30T03:26:29;102558.81;;;6.06;100.00
75418;BME280;63997;52.112;5.420;2024-01-30T03:28:56;102564.91;;;6.07;100.00
75418;BME280;63997;52.112;5.420;2024-01-30T03:31:23;102561.47;;;6.06;100.00
75418;BME280;63997;52.112;5.420;2024-01-30T03:33:49;102572.56;;;6.08;100.00
75418;BME280;63997;52.112;5.420;2024-01-30T03:36:16;102571.59;;;6.15;100.00
75418;BME280;63997;52.112;5.420;2024-01-30T03:38:43;102571.09;;;6.18;100.00
75418;BME280;63997;52.112;5.420;2024-01-30T03:41:09;102569.50;;;6.17;100.00
75418;BME280;63997;52.112;5.420;2024-01-30T03:43:36;102560.53;;;6.18;100.00
75418;BME280;63997;52.112;5.420;2024-01-30T03:46:03;102557.41;;;6.21;100.00
75418;BME280;63997;52.112;5.420;2024-01-30T03:48:30;102559.56;;;6.24;100.00
75418;BME280;63997;52.112;5.420;2024-01-30T03:50:56;102555.13;;;6.29;100.00
75418;BME280;63997;52.112;5.420;2024-01-30T03:53:23;102550.91;;;6.33;100.00
75418;BME280;63997;52.112;5.420;2024-01-30T03:55:50;102555.22;;;6.40;100.00
75418;BME280;63997;52.112;5.420;2024-01-30T03:58:16;102545.22;;;6.42;100.00
75418;BME280;63997;52.112;5.420;2024-01-30T04:00:43;102544.47;;;6.46;100.00
75418;BME280;63997;52.112;5.420;2024-01-30T04:03:10;102555.56;;;6.48;100.00
75418;BME280;63997;52.112;5.420;2024-01-30T04:05:36;102555.31;;;6.50;100.00
75418;BME280;63997;52.112;5.420;2024-01-30T04:08:03;102557.44;;;6.48;100.00
75418;BME280;63997;52.112;5.420;2024-01-30T04:10:30;102556.13;;;6.50;100.00
75418;BME280;63997;52.112;5.420;2024-01-30T04:12:56;102561.19;;;6.52;100.00
75418;BME280;63997;52.112;5.420;2024-01-30T04:15:23;102562.19;;;6.51;100.00
75418;BME280;63997;52.112;5.420;2024-01-30T04:17:49;102566.47;;;6.52;100.00
75418;BME280;63997;52.112;5.420;2024-01-30T04:20:16;102569.91;;;6.52;100.00
75418;BME280;63997;52.112;5.420;2024-01-30T04:22:44;102567.00;;;6.54;100.00
75418;BME280;63997;52.112;5.420;2024-01-30T04:25:12;102556.75;;;6.57;100.00
75418;BME280;63997;52.112;5.420;2024-01-30T04:27:39;102547.25;;;6.61;100.00
75418;BME280;63997;52.112;5.420;2024-01-30T04:30:06;102545.16;;;6.63;100.00
75418;BME280;63997;52.112;5.420;2024-01-30T04:32:34;102543.06;;;6.66;100.00
75418;BME280;63997;52.112;5.420;2024-01-30T04:35:01;102533.84;;;6.68;100.00
75418;BME280;63997;52.112;5.420;2024-01-30T04:37:32;102538.31;;;6.68;100.00
75418;BME280;63997;52.112;5.420;2024-01-30T04:39:58;102539.13;;;6.68;100.00
75418;BME280;63997;52.112;5.420;2024-01-30T04:42:25;102533.31;;;6.71;100.00
75418;BME280;63997;52.112;5.420;2024-01-30T04:44:54;102529.34;;;6.69;100.00
75418;BME280;63997;52.112;5.420;2024-01-30T04:47:20;102527.25;;;6.71;100.00
75418;BME280;63997;52.112;5.420;2024-01-30T04:49:47;102535.72;;;6.73;100.00
75418;BME280;63997;52.112;5.420;2024-01-30T04:52:14;102521.97;;;6.71;100.00
75418;BME280;63997;52.112;5.420;2024-01-30T04:54:40;102531.47;;;6.72;100.00
75418;BME280;63997;52.112;5.420;2024-01-30T04:57:07;102541.81;;;6.73;100.00
75418;BME280;63997;52.112;5.420;2024-01-30T04:59:35;102531.22;;;6.73;100.00
75418;BME280;63997;52.112;5.420;2024-01-30T05:02:02;102548.97;;;6.78;100.00
75418;BME280;63997;52.112;5.420;2024-01-30T05:04:29;102531.53;;;6.77;100.00
75418;BME280;63997;52.112;5.420;2024-01-30T05:06:56;102524.66;;;6.76;100.00
75418;BME280;63997;52.112;5.420;2024-01-30T05:09:22;102534.47;;;6.80;100.00
75418;BME280;63997;52.112;5.420;2024-01-30T05:11:49;102527.88;;;6.83;100.00
75418;BME280;63997;52.112;5.420;2024-01-30T05:14:16;102533.97;;;6.83;100.00
75418;BME280;63997;52.112;5.420;2024-01-30T05:16:42;102527.38;;;6.86;100.00
75418;BME280;63997;52.112;5.420;2024-01-30T05:19:13;102529.50;;;6.89;100.00
75418;BME280;63997;52.112;5.420;2024-01-30T05:21:41;102535.91;;;6.93;100.00
75418;BME280;63997;52.112;5.420;2024-01-30T05:24:08;102519.28;;;6.98;100.00
75418;BME280;63997;52.112;5.420;2024-01-30T05:26:36;102524.63;;;7.03;100.00
75418;BME280;63997;52.112;5.420;2024-01-30T05:29:03;102516.94;;;7.06;100.00
75418;BME280;63997;52.112;5.420;2024-01-30T05:31:29;102512.22;;;7.08;100.00
75418;BME280;63997;52.112;5.420;2024-01-30T05:33:56;102508.53;;;7.09;100.00
75418;BME280;63997;52.112;5.420;2024-01-30T05:36:23;102497.16;;;7.09;100.00
75418;BME280;63997;52.112;5.420;2024-01-30T05:38:49;102506.38;;;7.06;100.00
75418;BME280;63997;52.112;5.420;2024-01-30T05:41:16;102514.31;;;7.06;100.00
75418;BME280;63997;52.112;5.420;2024-01-30T05:43:42;102511.66;;;7.06;100.00
75418;BME280;63997;52.112;5.420;2024-01-30T05:46:09;102526.72;;;7.06;100.00
75418;BME280;63997;52.112;5.420;2024-01-30T05:48:39;102522.25;;;7.06;100.00
75418;BME280;63997;52.112;5.420;2024-01-30T05:51:07;102508.78;;;7.08;100.00
75418;BME280;63997;52.112;5.420;2024-01-30T05:53:34;102512.22;;;7.08;100.00
75418;BME280;63997;52.112;5.420;2024-01-30T05:56:02;102519.38;;;7.08;100.00
75418;BME280;63997;52.112;5.420;2024-01-30T05:58:28;102524.69;;;7.13;100.00
75418;BME280;63997;52.112;5.420;2024-01-30T06:00:55;102526.03;;;7.15;100.00
75418;BME280;63997;52.112;5.420;2024-01-30T06:03:22;102522.88;;;7.19;100.00
75418;BME280;63997;52.112;5.420;2024-01-30T06:05:48;102525.25;;;7.20;100.00
75418;BME280;63997;52.112;5.420;2024-01-30T06:08:15;102524.75;;;7.23;100.00
75418;BME280;63997;52.112;5.420;2024-01-30T06:10:42;102527.94;;;7.25;100.00
75418;BME280;63997;52.112;5.420;2024-01-30T06:13:08;102521.34;;;7.28;100.00
75418;BME280;63997;52.112;5.420;2024-01-30T06:15:35;102528.78;;;7.31;100.00
75418;BME280;63997;52.112;5.420;2024-01-30T06:18:01;102523.22;;;7.32;100.00
75418;BME280;63997;52.112;5.420;2024-01-30T06:20:28;102527.72;;;7.32;100.00
75418;BME280;63997;52.112;5.420;2024-01-30T06:22:55;102532.47;;;7.30;100.00
75418;BME280;63997;52.112;5.420;2024-01-30T06:25:21;102513.97;;;7.30;100.00
75418;BME280;63997;52.112;5.420;2024-01-30T06:27:48;102513.97;;;7.30;100.00
75418;BME280;63997;52.112;5.420;2024-01-30T06:30:15;102522.44;;;7.32;100.00
75418;BME280;63997;52.112;5.420;2024-01-30T06:32:41;102520.31;;;7.34;100.00
75418;BME280;63997;52.112;5.420;2024-01-30T06:35:08;102530.91;;;7.34;100.00
75418;BME280;63997;52.112;5.420;2024-01-30T06:37:36;102536.72;;;7.31;100.00
75418;BME280;63997;52.112;5.420;2024-01-30T06:40:03;102543.88;;;7.30;100.00
75418;BME280;63997;52.112;5.420;2024-01-30T06:42:31;102537.50;;;7.31;100.00
75418;BME280;63997;52.112;5.420;2024-01-30T06:44:58;102533.00;;;7.32;100.00
75418;BME280;63997;52.112;5.420;2024-01-30T06:47:24;102541.22;;;7.30;100.00
75418;BME280;63997;52.112;5.420;2024-01-30T06:49:51;102536.72;;;7.31;100.00
75418;BME280;63997;52.112;5.420;2024-01-30T06:52:17;102545.19;;;7.33;100.00
75418;BME280;63997;52.112;5.420;2024-01-30T06:54:44;102537.78;;;7.35;100.00
75418;BME280;63997;52.112;5.420;2024-01-30T06:57:11;102550.78;;;7.36;100.00
75418;BME280;63997;52.112;5.420;2024-01-30T06:59:38;102540.19;;;7.36;100.00
75418;BME280;63997;52.112;5.420;2024-01-30T07:02:10;102537.28;;;7.38;100.00
75418;BME280;63997;52.112;5.420;2024-01-30T07:04:37;102542.31;;;7.39;100.00
75418;BME280;63997;52.112;5.420;2024-01-30T07:07:06;102550.25;;;7.39;100.00
75418;BME280;63997;52.112;5.420;2024-01-30T07:09:41;102541.53;;;7.39;100.00
75418;BME280;63997;52.112;5.420;2024-01-30T07:12:07;102529.88;;;7.40;100.00
75418;BME280;63997;52.112;5.420;2024-01-30T07:14:34;102542.63;;;7.43;100.00
75418;BME280;63997;52.112;5.420;2024-01-30T07:17:01;102547.66;;;7.45;100.00
75418;BME280;63997;52.112;5.420;2024-01-30T07:19:28;102541.56;;;7.44;100.00
75418;BME280;63997;52.112;5.420;2024-01-30T07:21:55;102537.84;;;7.45;100.00
75418;BME280;63997;52.112;5.420;2024-01-30T07:24:21;102547.94;;;7.48;100.00
75418;BME280;63997;52.112;5.420;2024-01-30T07:26:48;102542.13;;;7.51;100.00
75418;BME280;63997;52.112;5.420;2024-01-30T07:29:14;102554.31;;;7.52;100.00
75418;BME280;63997;52.112;5.420;2024-01-30T07:31:41;102551.41;;;7.54;100.00
75418;BME280;63997;52.112;5.420;2024-01-30T07:34:07;102558.59;;;7.58;100.00
75418;BME280;63997;52.112;5.420;2024-01-30T07:36:34;102553.56;;;7.62;100.00
75418;BME280;63997;52.112;5.420;2024-01-30T07:39:00;102567.38;;;7.64;100.00
75418;BME280;63997;52.112;5.420;2024-01-30T07:41:27;102579.03;;;7.68;100.00
75418;BME280;63997;52.112;5.420;2024-01-30T07:43:53;102558.13;;;7.72;100.00
75418;BME280;63997;52.112;5.420;2024-01-30T07:46:20;102563.44;;;7.72;100.00
75418;BME280;63997;52.112;5.420;2024-01-30T07:48:46;102572.47;;;7.76;100.00
75418;BME280;63997;52.112;5.420;2024-01-30T07:51:14;102570.88;;;7.80;100.00
75418;BME280;63997;52.112;5.420;2024-01-30T07:53:41;102578.59;;;7.81;100.00
75418;BME280;63997;52.112;5.420;2024-01-30T07:56:08;102580.69;;;7.84;100.00
75418;BME280;63997;52.112;5.420;2024-01-30T07:58:37;102580.47;;;7.86;100.00
75418;BME280;63997;52.112;5.420;2024-01-30T08:01:03;102577.56;;;7.92;100.00
75418;BME280;63997;52.112;5.420;2024-01-30T08:03:30;102579.69;;;7.95;100.00
75418;BME280;63997;52.112;5.420;2024-01-30T08:05:57;102585.28;;;7.99;100.00
75418;BME280;63997;52.112;5.420;2024-01-30T08:08:23;102578.66;;;8.02;100.00
75418;BME280;63997;52.112;5.420;2024-01-30T08:10:50;102585.03;;;8.06;100.00
75418;BME280;63997;52.112;5.420;2024-01-30T08:13:16;102580.84;;;8.10;100.00
75418;BME280;63997;52.112;5.420;2024-01-30T08:15:43;102578.44;;;8.13;100.00
75418;BME280;63997;52.112;5.420;2024-01-30T08:18:09;102582.19;;;8.17;100.00
75418;BME280;63997;52.112;5.420;2024-01-30T08:20:36;102570.00;;;8.21;100.00
75418;BME280;63997;52.112;5.420;2024-01-30T08:23:03;102570.81;;;8.27;100.00
75418;BME280;63997;52.112;5.420;2024-01-30T08:25:31;102573.75;;;8.31;100.00
75418;BME280;63997;52.112;5.420;2024-01-30T08:27:58;102570.09;;;8.37;100.00
75418;BME280;63997;52.112;5.420;2024-01-30T08:30:24;102577.78;;;8.38;100.00
75418;BME280;63997;52.112;5.420;2024-01-30T08:32:51;102581.25;;;8.44;100.00
75418;BME280;63997;52.112;5.420;2024-01-30T08:35:18;102577.00;;;8.48;100.00
75418;BME280;63997;52.112;5.420;2024-01-30T08:37:45;102582.34;;;8.53;100.00
75418;BME280;63997;52.112;5.420;2024-01-30T08:40:11;102580.72;;;8.57;100.00
75418;BME280;63997;52.112;5.420;2024-01-30T08:42:38;102572.78;;;8.67;100.00
75418;BME280;63997;52.112;5.420;2024-01-30T08:45:05;102575.97;;;8.74;100.00
75418;BME280;63997;52.112;5.420;2024-01-30T08:47:32;102570.69;;;8.80;100.00
75418;BME280;63997;52.112;5.420;2024-01-30T08:49:59;102573.91;;;8.87;100.00
75418;BME280;63997;52.112;5.420;2024-01-30T08:52:26;102577.06;;;8.94;100.00
75418;BME280;63997;52.112;5.420;2024-01-30T08:54:53;102576.00;;;9.00;100.00
75418;BME280;63997;52.112;5.420;2024-01-30T08:57:19;102574.44;;;9.04;100.00
75418;BME280;63997;52.112;5.420;2024-01-30T08:59:46;102584.22;;;9.14;100.00
75418;BME280;63997;52.112;5.420;2024-01-30T09:02:13;102587.16;;;9.22;100.00
75418;BME280;63997;52.112;5.420;2024-01-30T09:04:42;102578.66;;;9.31;100.00
75418;BME280;63997;52.112;5.420;2024-01-30T09:07:10;102572.25;;;9.37;100.00
75418;BME280;63997;52.112;5.420;2024-01-30T09:09:38;102579.44;;;9.46;100.00
75418;BME280;63997;52.112;5.420;2024-01-30T09:12:06;102572.25;;;9.57;100.00
75418;BME280;63997;52.112;5.420;2024-01-30T09:14:36;102579.13;;;9.68;100.00
75418;BME280;63997;52.112;5.420;2024-01-30T09:17:03;102575.38;;;9.79;100.00
75418;BME280;63997;52.112;5.420;2024-01-30T09:19:30;102578.28;;;9.88;100.00
75418;BME280;63997;52.112;5.420;2024-01-30T09:21:57;102595.50;;;10.01;100.00
75418;BME280;63997;52.112;5.420;2024-01-30T09:24:25;102598.41;;;10.04;100.00
75418;BME280;63997;52.112;5.420;2024-01-30T09:26:53;102596.00;;;10.03;100.00
75418;BME280;63997;52.112;5.420;2024-01-30T09:29:21;102596.81;;;10.03;100.00
75418;BME280;63997;52.112;5.420;2024-01-30T09:31:47;102611.16;;;10.02;100.00
75418;BME280;63997;52.112;5.420;2024-01-30T09:34:14;102596.81;;;10.03;100.00
75418;BME280;63997;52.112;5.420;2024-01-30T09:36:41;102590.97;;;10.06;100.00
75418;BME280;63997;52.112;5.420;2024-01-30T09:39:07;102600.81;;;10.06;100.00
75418;BME280;63997;52.112;5.420;2024-01-30T09:41:42;102600.25;;;10.09;100.00
75418;BME280;63997;52.112;5.420;2024-01-30T09:44:11;102599.19;;;10.10;100.00
75418;BME280;63997;52.112;5.420;2024-01-30T09:46:38;102607.16;;;10.10;100.00
75418;BME280;63997;52.112;5.420;2024-01-30T09:49:06;102618.03;;;10.14;100.00
75418;BME280;63997;52.112;5.420;2024-01-30T09:51:34;102611.91;;;10.18;100.00
75418;BME280;63997;52.112;5.420;2024-01-30T09:54:02;102604.72;;;10.19;100.00
75418;BME280;63997;52.112;5.420;2024-01-30T09:56:29;102609.25;;;10.23;100.00
75418;BME280;63997;52.112;5.420;2024-01-30T09:58:55;102613.78;;;10.28;100.00
75418;BME280;63997;52.112;5.420;2024-01-30T10:01:22;102614.78;;;10.32;100.00
75418;BME280;63997;52.112;5.420;2024-01-30T10:03:50;102626.25;;;10.32;100.00
75418;BME280;63997;52.112;5.420;2024-01-30T10:06:19;102620.38;;;10.36;100.00
75418;BME280;63997;52.112;5.420;2024-01-30T10:08:49;102618.50;;;10.36;100.00
75418;BME280;63997;52.112;5.420;2024-01-30T10:11:16;102617.44;;;10.37;100.00
75418;BME280;63997;52.112;5.420;2024-01-30T10:13:42;102614.78;;;10.37;100.00
75418;BME280;63997;52.112;5.420;2024-01-30T10:16:09;102612.13;;;10.37;100.00
75418;BME280;63997;52.112;5.420;2024-01-30T10:18:36;102610.78;;;10.40;100.00
75418;BME280;63997;52.112;5.420;2024-01-30T10:21:03;102612.66;;;10.39;100.00
75418;BME280;63997;52.112;5.420;2024-01-30T10:23:30;102621.41;;;10.45;100.00
75418;BME280;63997;52.112;5.420;2024-01-30T10:26:03;102617.66;;;10.51;100.00
75418;BME280;63997;52.112;5.420;2024-01-30T10:28:30;102623.44;;;10.58;100.00
75418;BME280;63997;52.112;5.420;2024-01-30T10:30:58;102619.69;;;10.64;100.00
75418;BME280;63997;52.112;5.420;2024-01-30T10:33:30;102607.41;;;10.73;100.00
75418;BME280;63997;52.112;5.420;2024-01-30T10:36:03;102614.00;;;10.81;100.00
75418;BME280;63997;52.112;5.420;2024-01-30T10:38:30;102628.06;;;10.86;100.00
75418;BME280;63997;52.112;5.420;2024-01-30T10:40:58;102629.06;;;10.96;100.00
75418;BME280;63997;52.112;5.420;2024-01-30T10:43:33;102615.22;;;10.94;100.00
75418;BME280;63997;52.112;5.420;2024-01-30T10:46:17;102611.00;;;10.88;100.00
75418;BME280;63997;52.112;5.420;2024-01-30T10:48:46;102633.94;;;10.83;100.00
75418;BME280;63997;52.112;5.420;2024-01-30T10:51:17;102636.38;;;10.80;100.00
75418;BME280;63997;52.112;5.420;2024-01-30T10:53:46;102625.47;;;10.76;100.00
75418;BME280;63997;52.112;5.420;2024-01-30T10:56:13;102629.19;;;10.75;100.00
75418;BME280;63997;52.112;5.420;2024-01-30T10:58:41;102636.66;;;10.73;100.00
75418;BME280;63997;52.112;5.420;2024-01-30T11:01:09;102627.63;;;10.74;100.00
75418;BME280;63997;52.112;5.420;2024-01-30T11:03:36;102645.13;;;10.80;100.00
75418;BME280;63997;52.112;5.420;2024-01-30T11:06:03;102640.56;;;10.86;100.00
75418;BME280;63997;52.112;5.420;2024-01-30T11:08:32;102629.13;;;10.85;100.00
75418;BME280;63997;52.112;5.420;2024-01-30T11:10:59;102637.63;;;10.88;100.00
75418;BME280;63997;52.112;5.420;2024-01-30T11:13:29;102653.06;;;10.91;100.00
75418;BME280;63997;52.112;5.420;2024-01-30T11:16:05;102635.97;;;10.97;100.00
75418;BME280;63997;52.112;5.420;2024-01-30T11:18:35;102631.97;;;10.99;100.00
75418;BME280;63997;52.112;5.420;2024-01-30T11:21:04;102642.34;;;11.01;100.00
75418;BME280;63997;52.112;5.420;2024-01-30T11:23:33;102640.75;;;11.00;100.00
75418;BME280;63997;52.112;5.420;2024-01-30T11:26:00;102636.25;;;11.00;100.00
75418;BME280;63997;52.112;5.420;2024-01-30T11:28:33;102630.09;;;11.00;100.00
75418;BME280;63997;52.112;5.420;2024-01-30T11:31:07;102636.78;;;10.97;99.83
75418;BME280;63997;52.112;5.420;2024-01-30T11:33:34;102647.16;;;10.94;99.76
75418;BME280;63997;52.112;5.420;2024-01-30T11:36:01;102656.19;;;10.98;99.47
75418;BME280;63997;52.112;5.420;2024-01-30T11:38:29;102659.19;;;10.91;97.94
75418;BME280;63997;52.112;5.420;2024-01-30T11:40:56;102662.66;;;10.86;97.31
75418;BME280;63997;52.112;5.420;2024-01-30T11:43:24;102657.38;;;10.81;96.63
75418;BME280;63997;52.112;5.420;2024-01-30T11:45:51;102666.94;;;10.82;96.75
75418;BME280;63997;52.112;5.420;2024-01-30T11:48:18;102659.81;;;10.78;96.57
75418;BME280;63997;52.112;5.420;2024-01-30T11:50:46;102671.78;;;10.75;96.31
75418;BME280;63997;52.112;5.420;2024-01-30T11:53:13;102667.56;;;10.69;95.87
75418;BME280;63997;52.112;5.420;2024-01-30T11:55:39;102670.25;;;10.64;95.92
75418;BME280;63997;52.112;5.420;2024-01-30T11:58:06;102679.03;;;10.59;95.87
75418;BME280;63997;52.112;5.420;2024-01-30T12:00:33;102671.34;;;10.58;96.29
75418;BME280;63997;52.112;5.420;2024-01-30T12:03:01;102669.75;;;10.57;96.06
75418;BME280;63997;52.112;5.420;2024-01-30T12:05:28;102674.59;;;10.50;95.93
75418;BME280;63997;52.112;5.420;2024-01-30T12:07:56;102673.53;;;10.46;95.92
75418;BME280;63997;52.112;5.420;2024-01-30T12:10:26;102687.34;;;10.43;95.99
75418;BME280;63997;52.112;5.420;2024-01-30T12:12:54;102688.19;;;10.38;96.06
75418;BME280;63997;52.112;5.420;2024-01-30T12:15:21;102687.94;;;10.35;95.53
75418;BME280;63997;52.112;5.420;2024-01-30T12:17:50;102695.41;;;10.32;94.50
75418;BME280;63997;52.112;5.420;2024-01-30T12:20:18;102703.38;;;10.27;94.35
75418;BME280;63997;52.112;5.420;2024-01-30T12:22:48;102704.44;;;10.21;93.73
75418;BME280;63997;52.112;5.420;2024-01-30T12:25:16;102693.28;;;10.14;93.85
75418;BME280;63997;52.112;5.420;2024-01-30T12:27:45;102709.25;;;10.04;93.84
75418;BME280;63997;52.112;5.420;2024-01-30T12:30:13;102723.88;;;9.96;94.16
75418;BME280;63997;52.112;5.420;2024-01-30T12:32:45;102739.03;;;9.86;94.62
75418;BME280;63997;52.112;5.420;2024-01-30T12:35:13;102740.38;;;9.73;95.95
75418;BME280;63997;52.112;5.420;2024-01-30T12:37:41;102753.38;;;9.64;96.08
75418;BME280;63997;52.112;5.420;2024-01-30T12:40:09;102748.34;;;9.58;96.50
75418;BME280;63997;52.112;5.420;2024-01-30T12:42:36;102744.88;;;9.52;96.35
75418;BME280;63997;52.112;5.420;2024-01-30T12:45:04;102737.97;;;9.46;96.13
75418;BME280;63997;52.112;5.420;2024-01-30T12:47:32;102734.78;;;9.44;96.28